Terminal Aerodrome Forecast
Issued by NWS Louisville, KY

Home | Current Version | Previous Version | Text Only | Print | Product List | Glossary On
Versions: 1 2 3 4 5 6 7 8 9 10 11 12 13 14 15 16 17 18 19 20
408
FTUS43 KLMK 222320
TAFLEX
TAF
KLEX 222320Z 2300/2324 07008KT P6SM SCT150
     FM231500 14008KT P6SM BKN150
     FM232100 17010KT P6SM BKN100=

USA.gov is the U.S. government's official web portal to all federal, state and local government web resources and services.